KSIK/SIK METAR and TAF weather

Enter ICAO airport designator
Station Type Date Time Source
KSIK METAR 2020/12/05 06:35 UTC NOAA

KSIK 050635Z AUTO 26004KT 10SM CLR 03/00 A3012 RMK AO2 TSNO


Station Type Date Time Source
KSIK Decoded METAR 2020/12/05 06:35 UTC NOAA

Station name not available
Dec 05, 2020 - 01:35 AM EST / 2020.12.05 0635 UTC
Wind: from the W (260 degrees) at 5 MPH (4 KT):0
Visibility: 10 mile(s):0
Sky conditions: clear
Temperature: 37 F (3 C)
Dew Point: 32 F (0 C)
Relative Humidity: 80%
Pressure (altimeter): 30.12 in. Hg (1019 hPa)
ob: KSIK 050635Z AUTO 26004KT 10SM CLR 03/00 A3012 RMK AO2 TSNO
cycle: 6

Station Type Date Time Source
KSIK TAF UTC NOAA

Error!

Example: see airport list